sensor_id;sensor_type;location;lat;lon;timestamp;P1;durP1;ratioP1;P2;durP2;ratioP2
67571;SDS011;54397;47.506;19.158;2024-03-02T00:02:29;22.15;;;15.55;;
67571;SDS011;54397;47.506;19.158;2024-03-02T00:05:51;31.58;;;16.83;;
67571;SDS011;54397;47.506;19.158;2024-03-02T00:09:15;22.77;;;15.93;;
67571;SDS011;54397;47.506;19.158;2024-03-02T00:12:37;24.65;;;16.40;;
67571;SDS011;54397;47.506;19.158;2024-03-02T00:16:00;25.48;;;16.95;;
67571;SDS011;54397;47.506;19.158;2024-03-02T00:19:21;24.83;;;16.58;;
67571;SDS011;54397;47.506;19.158;2024-03-02T00:22:46;26.80;;;16.35;;
67571;SDS011;54397;47.506;19.158;2024-03-02T00:26:14;25.80;;;15.93;;
67571;SDS011;54397;47.506;19.158;2024-03-02T00:29:43;24.95;;;16.15;;
67571;SDS011;54397;47.506;19.158;2024-03-02T00:33:06;27.27;;;16.40;;
67571;SDS011;54397;47.506;19.158;2024-03-02T00:36:28;24.30;;;16.75;;
67571;SDS011;54397;47.506;19.158;2024-03-02T00:39:50;25.45;;;16.10;;
67571;SDS011;54397;47.506;19.158;2024-03-02T00:43:33;26.88;;;16.77;;
67571;SDS011;54397;47.506;19.158;2024-03-02T00:47:13;26.88;;;17.08;;
67571;SDS011;54397;47.506;19.158;2024-03-02T00:50:35;26.95;;;16.38;;
67571;SDS011;54397;47.506;19.158;2024-03-02T00:54:00;23.02;;;15.95;;
67571;SDS011;54397;47.506;19.158;2024-03-02T00:57:25;25.58;;;16.05;;
67571;SDS011;54397;47.506;19.158;2024-03-02T01:00:53;24.25;;;16.40;;
67571;SDS011;54397;47.506;19.158;2024-03-02T01:04:14;24.88;;;16.05;;
67571;SDS011;54397;47.506;19.158;2024-03-02T01:07:37;24.70;;;16.80;;
67571;SDS011;54397;47.506;19.158;2024-03-02T01:11:00;30.73;;;16.88;;
67571;SDS011;54397;47.506;19.158;2024-03-02T01:14:22;22.75;;;16.13;;
67571;SDS011;54397;47.506;19.158;2024-03-02T01:17:45;23.98;;;16.20;;
67571;SDS011;54397;47.506;19.158;2024-03-02T01:21:13;24.95;;;15.52;;
67571;SDS011;54397;47.506;19.158;2024-03-02T01:24:39;20.50;;;15.10;;
67571;SDS011;54397;47.506;19.158;2024-03-02T01:28:02;23.92;;;15.35;;
67571;SDS011;54397;47.506;19.158;2024-03-02T01:31:24;24.83;;;16.25;;
67571;SDS011;54397;47.506;19.158;2024-03-02T01:34:46;25.95;;;15.60;;
67571;SDS011;54397;47.506;19.158;2024-03-02T01:38:07;23.42;;;15.85;;
67571;SDS011;54397;47.506;19.158;2024-03-02T01:41:29;22.13;;;15.68;;
67571;SDS011;54397;47.506;19.158;2024-03-02T01:44:51;29.13;;;16.25;;
67571;SDS011;54397;47.506;19.158;2024-03-02T01:48:15;26.15;;;15.88;;
67571;SDS011;54397;47.506;19.158;2024-03-02T01:51:37;23.23;;;16.08;;
67571;SDS011;54397;47.506;19.158;2024-03-02T01:55:04;28.60;;;16.42;;
67571;SDS011;54397;47.506;19.158;2024-03-02T01:58:26;24.33;;;16.20;;
67571;SDS011;54397;47.506;19.158;2024-03-02T02:01:47;23.73;;;15.15;;
67571;SDS011;54397;47.506;19.158;2024-03-02T02:05:14;24.40;;;15.75;;
67571;SDS011;54397;47.506;19.158;2024-03-02T02:08:39;24.10;;;16.52;;
67571;SDS011;54397;47.506;19.158;2024-03-02T02:12:01;23.67;;;15.77;;
67571;SDS011;54397;47.506;19.158;2024-03-02T02:15:30;25.73;;;16.08;;
67571;SDS011;54397;47.506;19.158;2024-03-02T02:18:54;23.85;;;15.43;;
67571;SDS011;54397;47.506;19.158;2024-03-02T02:22:16;25.42;;;15.77;;
67571;SDS011;54397;47.506;19.158;2024-03-02T02:25:42;21.77;;;15.40;;
67571;SDS011;54397;47.506;19.158;2024-03-02T02:29:04;23.55;;;16.23;;
67571;SDS011;54397;47.506;19.158;2024-03-02T02:32:29;22.88;;;15.55;;
67571;SDS011;54397;47.506;19.158;2024-03-02T02:35:51;25.75;;;15.57;;
67571;SDS011;54397;47.506;19.158;2024-03-02T02:39:13;23.40;;;15.32;;
67571;SDS011;54397;47.506;19.158;2024-03-02T02:42:40;24.33;;;15.50;;
67571;SDS011;54397;47.506;19.158;2024-03-02T02:46:02;22.77;;;15.90;;
67571;SDS011;54397;47.506;19.158;2024-03-02T02:49:24;24.27;;;15.98;;
67571;SDS011;54397;47.506;19.158;2024-03-02T02:52:46;27.15;;;15.65;;
67571;SDS011;54397;47.506;19.158;2024-03-02T02:56:10;25.85;;;15.93;;
67571;SDS011;54397;47.506;19.158;2024-03-02T02:59:35;21.17;;;14.93;;
67571;SDS011;54397;47.506;19.158;2024-03-02T03:02:59;24.45;;;15.48;;
67571;SDS011;54397;47.506;19.158;2024-03-02T03:06:23;25.70;;;15.07;;
67571;SDS011;54397;47.506;19.158;2024-03-02T03:09:45;21.63;;;14.18;;
67571;SDS011;54397;47.506;19.158;2024-03-02T03:13:06;21.52;;;14.48;;
67571;SDS011;54397;47.506;19.158;2024-03-02T03:16:29;23.80;;;14.75;;
67571;SDS011;54397;47.506;19.158;2024-03-02T03:19:53;23.85;;;15.68;;
67571;SDS011;54397;47.506;19.158;2024-03-02T03:23:16;25.80;;;15.95;;
67571;SDS011;54397;47.506;19.158;2024-03-02T03:26:40;22.45;;;14.73;;
67571;SDS011;54397;47.506;19.158;2024-03-02T03:30:03;24.23;;;14.40;;
67571;SDS011;54397;47.506;19.158;2024-03-02T03:33:27;19.75;;;14.65;;
67571;SDS011;54397;47.506;19.158;2024-03-02T03:36:51;23.95;;;14.13;;
67571;SDS011;54397;47.506;19.158;2024-03-02T03:40:13;21.77;;;14.80;;
67571;SDS011;54397;47.506;19.158;2024-03-02T03:43:35;22.10;;;14.27;;
67571;SDS011;54397;47.506;19.158;2024-03-02T03:47:00;20.67;;;15.00;;
67571;SDS011;54397;47.506;19.158;2024-03-02T03:50:23;44.30;;;29.60;;
67571;SDS011;54397;47.506;19.158;2024-03-02T03:53:47;26.08;;;15.65;;
67571;SDS011;54397;47.506;19.158;2024-03-02T03:57:11;22.13;;;15.45;;
67571;SDS011;54397;47.506;19.158;2024-03-02T04:00:33;22.13;;;15.45;;
67571;SDS011;54397;47.506;19.158;2024-03-02T04:03:54;29.50;;;15.10;;
67571;SDS011;54397;47.506;19.158;2024-03-02T04:07:16;23.23;;;14.98;;
67571;SDS011;54397;47.506;19.158;2024-03-02T04:10:38;24.25;;;16.15;;
67571;SDS011;54397;47.506;19.158;2024-03-02T04:13:59;30.00;;;19.90;;
67571;SDS011;54397;47.506;19.158;2024-03-02T04:17:21;21.30;;;14.68;;
67571;SDS011;54397;47.506;19.158;2024-03-02T04:20:42;24.85;;;15.43;;
67571;SDS011;54397;47.506;19.158;2024-03-02T04:24:09;22.63;;;15.68;;
67571;SDS011;54397;47.506;19.158;2024-03-02T04:27:36;24.85;;;16.73;;
67571;SDS011;54397;47.506;19.158;2024-03-02T04:31:00;27.10;;;17.30;;
67571;SDS011;54397;47.506;19.158;2024-03-02T04:34:25;23.52;;;16.20;;
67571;SDS011;54397;47.506;19.158;2024-03-02T04:37:46;26.92;;;18.17;;
67571;SDS011;54397;47.506;19.158;2024-03-02T04:41:10;27.95;;;15.10;;
67571;SDS011;54397;47.506;19.158;2024-03-02T04:44:32;23.77;;;17.40;;
67571;SDS011;54397;47.506;19.158;2024-03-02T04:47:59;27.35;;;16.92;;
67571;SDS011;54397;47.506;19.158;2024-03-02T04:51:23;24.20;;;16.48;;
67571;SDS011;54397;47.506;19.158;2024-03-02T04:54:49;30.50;;;17.50;;
67571;SDS011;54397;47.506;19.158;2024-03-02T04:58:32;25.50;;;17.85;;
67571;SDS011;54397;47.506;19.158;2024-03-02T05:01:53;28.70;;;18.50;;
67571;SDS011;54397;47.506;19.158;2024-03-02T05:05:17;26.38;;;17.33;;
67571;SDS011;54397;47.506;19.158;2024-03-02T05:08:39;27.75;;;17.73;;
67571;SDS011;54397;47.506;19.158;2024-03-02T05:12:01;22.70;;;16.42;;
67571;SDS011;54397;47.506;19.158;2024-03-02T05:15:50;27.50;;;17.58;;
67571;SDS011;54397;47.506;19.158;2024-03-02T05:19:15;26.25;;;17.95;;
67571;SDS011;54397;47.506;19.158;2024-03-02T05:22:37;23.15;;;16.83;;
67571;SDS011;54397;47.506;19.158;2024-03-02T05:26:01;105.93;;;59.28;;
67571;SDS011;54397;47.506;19.158;2024-03-02T05:29:23;27.88;;;19.38;;
67571;SDS011;54397;47.506;19.158;2024-03-02T05:32:44;22.88;;;17.15;;
67571;SDS011;54397;47.506;19.158;2024-03-02T05:36:11;25.67;;;17.85;;
67571;SDS011;54397;47.506;19.158;2024-03-02T05:39:33;26.02;;;17.60;;
67571;SDS011;54397;47.506;19.158;2024-03-02T05:42:54;25.40;;;17.48;;
67571;SDS011;54397;47.506;19.158;2024-03-02T05:46:19;23.38;;;17.45;;
67571;SDS011;54397;47.506;19.158;2024-03-02T05:49:40;26.83;;;18.00;;
67571;SDS011;54397;47.506;19.158;2024-03-02T05:53:04;23.52;;;17.27;;
67571;SDS011;54397;47.506;19.158;2024-03-02T05:56:26;28.15;;;17.23;;
67571;SDS011;54397;47.506;19.158;2024-03-02T05:59:48;26.75;;;17.38;;
67571;SDS011;54397;47.506;19.158;2024-03-02T06:03:10;25.55;;;17.75;;
67571;SDS011;54397;47.506;19.158;2024-03-02T06:06:36;25.33;;;16.92;;
67571;SDS011;54397;47.506;19.158;2024-03-02T06:09:58;23.23;;;17.60;;
67571;SDS011;54397;47.506;19.158;2024-03-02T06:13:20;21.63;;;15.50;;
67571;SDS011;54397;47.506;19.158;2024-03-02T06:16:47;26.70;;;17.48;;
67571;SDS011;54397;47.506;19.158;2024-03-02T06:20:11;25.67;;;16.98;;
67571;SDS011;54397;47.506;19.158;2024-03-02T06:23:33;26.83;;;18.00;;
67571;SDS011;54397;47.506;19.158;2024-03-02T06:26:57;22.98;;;16.77;;
67571;SDS011;54397;47.506;19.158;2024-03-02T06:30:21;24.40;;;16.63;;
67571;SDS011;54397;47.506;19.158;2024-03-02T06:33:43;24.88;;;16.88;;
67571;SDS011;54397;47.506;19.158;2024-03-02T06:37:06;23.17;;;16.92;;
67571;SDS011;54397;47.506;19.158;2024-03-02T06:40:28;25.27;;;17.13;;
67571;SDS011;54397;47.506;19.158;2024-03-02T06:43:50;25.27;;;17.00;;
67571;SDS011;54397;47.506;19.158;2024-03-02T06:47:15;25.35;;;17.27;;
67571;SDS011;54397;47.506;19.158;2024-03-02T06:50:41;20.00;;;15.73;;
67571;SDS011;54397;47.506;19.158;2024-03-02T06:54:05;24.13;;;16.98;;
67571;SDS011;54397;47.506;19.158;2024-03-02T06:57:27;23.02;;;16.02;;
67571;SDS011;54397;47.506;19.158;2024-03-02T07:00:48;23.90;;;17.30;;
67571;SDS011;54397;47.506;19.158;2024-03-02T07:04:14;28.13;;;18.48;;
67571;SDS011;54397;47.506;19.158;2024-03-02T07:07:35;26.90;;;16.88;;
67571;SDS011;54397;47.506;19.158;2024-03-02T07:10:58;25.30;;;17.40;;
67571;SDS011;54397;47.506;19.158;2024-03-02T07:14:19;25.85;;;18.23;;
67571;SDS011;54397;47.506;19.158;2024-03-02T07:17:41;27.48;;;17.15;;
67571;SDS011;54397;47.506;19.158;2024-03-02T07:21:03;30.35;;;20.55;;
67571;SDS011;54397;47.506;19.158;2024-03-02T07:24:24;24.52;;;17.42;;
67571;SDS011;54397;47.506;19.158;2024-03-02T07:27:49;27.20;;;17.65;;
67571;SDS011;54397;47.506;19.158;2024-03-02T07:31:10;23.38;;;16.77;;
67571;SDS011;54397;47.506;19.158;2024-03-02T07:34:32;23.92;;;17.27;;
67571;SDS011;54397;47.506;19.158;2024-03-02T07:37:56;24.23;;;12.48;;
67571;SDS011;54397;47.506;19.158;2024-03-02T07:41:18;18.45;;;11.52;;
67571;SDS011;54397;47.506;19.158;2024-03-02T07:44:40;19.17;;;11.55;;
67571;SDS011;54397;47.506;19.158;2024-03-02T07:48:02;18.80;;;12.85;;
67571;SDS011;54397;47.506;19.158;2024-03-02T07:51:25;18.15;;;12.35;;
67571;SDS011;54397;47.506;19.158;2024-03-02T07:54:50;22.75;;;16.38;;
67571;SDS011;54397;47.506;19.158;2024-03-02T07:58:12;22.50;;;14.65;;
67571;SDS011;54397;47.506;19.158;2024-03-02T08:01:34;21.55;;;15.25;;
67571;SDS011;54397;47.506;19.158;2024-03-02T08:04:56;21.75;;;15.60;;
67571;SDS011;54397;47.506;19.158;2024-03-02T08:08:18;19.65;;;15.02;;
67571;SDS011;54397;47.506;19.158;2024-03-02T08:11:42;22.67;;;14.90;;
67571;SDS011;54397;47.506;19.158;2024-03-02T08:15:03;18.58;;;14.75;;
67571;SDS011;54397;47.506;19.158;2024-03-02T08:18:25;23.27;;;15.43;;
67571;SDS011;54397;47.506;19.158;2024-03-02T08:21:47;22.75;;;15.35;;
67571;SDS011;54397;47.506;19.158;2024-03-02T08:25:09;20.35;;;15.98;;
67571;SDS011;54397;47.506;19.158;2024-03-02T08:28:37;23.55;;;16.13;;
67571;SDS011;54397;47.506;19.158;2024-03-02T08:32:01;22.45;;;15.55;;
67571;SDS011;54397;47.506;19.158;2024-03-02T08:35:26;22.15;;;16.33;;
67571;SDS011;54397;47.506;19.158;2024-03-02T08:38:48;21.67;;;15.98;;
67571;SDS011;54397;47.506;19.158;2024-03-02T08:42:10;22.50;;;15.85;;
67571;SDS011;54397;47.506;19.158;2024-03-02T08:45:32;20.25;;;15.27;;
67571;SDS011;54397;47.506;19.158;2024-03-02T08:48:55;23.92;;;15.73;;
67571;SDS011;54397;47.506;19.158;2024-03-02T08:52:17;22.63;;;17.42;;
67571;SDS011;54397;47.506;19.158;2024-03-02T08:55:39;23.13;;;15.88;;
67571;SDS011;54397;47.506;19.158;2024-03-02T08:59:00;19.83;;;15.85;;
67571;SDS011;54397;47.506;19.158;2024-03-02T09:02:25;20.42;;;14.43;;
67571;SDS011;54397;47.506;19.158;2024-03-02T09:05:47;22.33;;;15.20;;
67571;SDS011;54397;47.506;19.158;2024-03-02T09:09:11;17.38;;;14.00;;
67571;SDS011;54397;47.506;19.158;2024-03-02T09:12:32;18.15;;;14.30;;
67571;SDS011;54397;47.506;19.158;2024-03-02T09:15:54;18.15;;;13.80;;
67571;SDS011;54397;47.506;19.158;2024-03-02T09:19:18;18.67;;;13.15;;
67571;SDS011;54397;47.506;19.158;2024-03-02T09:22:42;19.10;;;13.70;;
67571;SDS011;54397;47.506;19.158;2024-03-02T09:26:08;16.60;;;12.50;;
67571;SDS011;54397;47.506;19.158;2024-03-02T09:29:30;16.38;;;12.77;;
67571;SDS011;54397;47.506;19.158;2024-03-02T09:32:52;35.40;;;26.30;;
67571;SDS011;54397;47.506;19.158;2024-03-02T09:36:36;19.95;;;13.05;;
67571;SDS011;54397;47.506;19.158;2024-03-02T09:39:58;16.25;;;12.20;;
67571;SDS011;54397;47.506;19.158;2024-03-02T09:43:20;15.98;;;12.45;;
67571;SDS011;54397;47.506;19.158;2024-03-02T09:46:42;14.20;;;11.48;;
67571;SDS011;54397;47.506;19.158;2024-03-02T09:50:05;16.48;;;11.98;;
67571;SDS011;54397;47.506;19.158;2024-03-02T09:53:31;15.10;;;10.90;;
67571;SDS011;54397;47.506;19.158;2024-03-02T09:56:54;16.42;;;11.45;;
67571;SDS011;54397;47.506;19.158;2024-03-02T10:00:16;14.07;;;10.85;;
67571;SDS011;54397;47.506;19.158;2024-03-02T10:03:38;12.98;;;10.93;;
67571;SDS011;54397;47.506;19.158;2024-03-02T10:07:13;12.38;;;10.60;;
67571;SDS011;54397;47.506;19.158;2024-03-02T10:10:37;10.90;;;9.48;;
67571;SDS011;54397;47.506;19.158;2024-03-02T10:17:30;10.68;;;9.38;;
67571;SDS011;54397;47.506;19.158;2024-03-02T10:20:55;23.60;;;17.17;;
67571;SDS011;54397;47.506;19.158;2024-03-02T10:24:40;11.60;;;9.90;;
67571;SDS011;54397;47.506;19.158;2024-03-02T10:28:11;12.20;;;8.45;;
67571;SDS011;54397;47.506;19.158;2024-03-02T10:31:33;14.32;;;9.43;;
67571;SDS011;54397;47.506;19.158;2024-03-02T10:34:58;10.98;;;8.75;;
67571;SDS011;54397;47.506;19.158;2024-03-02T10:38:22;14.05;;;11.40;;
67571;SDS011;54397;47.506;19.158;2024-03-02T10:41:46;13.73;;;10.88;;
67571;SDS011;54397;47.506;19.158;2024-03-02T10:45:14;12.45;;;9.45;;
67571;SDS011;54397;47.506;19.158;2024-03-02T10:48:39;9.90;;;8.65;;
67571;SDS011;54397;47.506;19.158;2024-03-02T10:52:02;8.43;;;7.50;;
67571;SDS011;54397;47.506;19.158;2024-03-02T10:55:25;10.02;;;8.05;;
67571;SDS011;54397;47.506;19.158;2024-03-02T10:58:47;8.73;;;7.75;;
67571;SDS011;54397;47.506;19.158;2024-03-02T11:02:12;8.82;;;7.57;;
67571;SDS011;54397;47.506;19.158;2024-03-02T11:05:43;10.10;;;7.50;;
67571;SDS011;54397;47.506;19.158;2024-03-02T11:09:08;11.50;;;9.05;;
67571;SDS011;54397;47.506;19.158;2024-03-02T11:19:56;12.15;;;8.75;;
67571;SDS011;54397;47.506;19.158;2024-03-02T11:23:19;10.02;;;7.90;;
67571;SDS011;54397;47.506;19.158;2024-03-02T11:26:54;10.88;;;8.23;;
67571;SDS011;54397;47.506;19.158;2024-03-02T11:33:56;9.90;;;7.35;;
67571;SDS011;54397;47.506;19.158;2024-03-02T11:37:18;10.98;;;7.97;;
67571;SDS011;54397;47.506;19.158;2024-03-02T11:40:44;9.07;;;7.68;;
67571;SDS011;54397;47.506;19.158;2024-03-02T11:44:06;9.13;;;7.07;;
67571;SDS011;54397;47.506;19.158;2024-03-02T11:47:31;8.65;;;7.32;;
67571;SDS011;54397;47.506;19.158;2024-03-02T11:50:59;8.85;;;7.50;;
67571;SDS011;54397;47.506;19.158;2024-03-02T11:54:22;8.70;;;7.85;;
67571;SDS011;54397;47.506;19.158;2024-03-02T11:57:43;11.35;;;10.02;;
67571;SDS011;54397;47.506;19.158;2024-03-02T12:01:07;17.02;;;13.63;;
67571;SDS011;54397;47.506;19.158;2024-03-02T12:04:32;14.13;;;12.63;;
67571;SDS011;54397;47.506;19.158;2024-03-02T12:07:57;12.93;;;9.90;;
67571;SDS011;54397;47.506;19.158;2024-03-02T12:11:20;9.45;;;7.55;;
67571;SDS011;54397;47.506;19.158;2024-03-02T12:14:49;11.07;;;7.75;;
67571;SDS011;54397;47.506;19.158;2024-03-02T12:18:14;8.77;;;7.28;;
67571;SDS011;54397;47.506;19.158;2024-03-02T12:21:38;8.60;;;7.43;;
67571;SDS011;54397;47.506;19.158;2024-03-02T12:25:00;11.15;;;8.70;;
67571;SDS011;54397;47.506;19.158;2024-03-02T12:28:22;10.30;;;8.68;;
67571;SDS011;54397;47.506;19.158;2024-03-02T12:31:44;10.63;;;9.20;;
67571;SDS011;54397;47.506;19.158;2024-03-02T12:35:12;10.75;;;9.55;;
67571;SDS011;54397;47.506;19.158;2024-03-02T12:38:43;10.60;;;9.50;;
67571;SDS011;54397;47.506;19.158;2024-03-02T12:42:05;10.55;;;8.70;;
67571;SDS011;54397;47.506;19.158;2024-03-02T12:45:29;12.63;;;8.75;;
67571;SDS011;54397;47.506;19.158;2024-03-02T12:48:51;9.82;;;8.00;;
67571;SDS011;54397;47.506;19.158;2024-03-02T12:52:13;12.20;;;7.82;;
67571;SDS011;54397;47.506;19.158;2024-03-02T12:55:40;13.02;;;8.27;;
67571;SDS011;54397;47.506;19.158;2024-03-02T12:59:02;9.07;;;7.47;;
67571;SDS011;54397;47.506;19.158;2024-03-02T13:02:31;12.60;;;8.20;;
67571;SDS011;54397;47.506;19.158;2024-03-02T13:05:55;11.32;;;7.90;;
67571;SDS011;54397;47.506;19.158;2024-03-02T13:09:17;11.57;;;7.63;;
67571;SDS011;54397;47.506;19.158;2024-03-02T13:12:39;11.88;;;7.97;;
67571;SDS011;54397;47.506;19.158;2024-03-02T13:16:03;14.18;;;8.48;;
67571;SDS011;54397;47.506;19.158;2024-03-02T13:19:29;13.35;;;8.25;;
67571;SDS011;54397;47.506;19.158;2024-03-02T13:22:52;10.45;;;8.02;;
67571;SDS011;54397;47.506;19.158;2024-03-02T13:26:13;17.80;;;8.95;;
67571;SDS011;54397;47.506;19.158;2024-03-02T13:29:35;15.57;;;9.15;;
67571;SDS011;54397;47.506;19.158;2024-03-02T13:33:01;14.55;;;9.38;;
67571;SDS011;54397;47.506;19.158;2024-03-02T13:36:23;13.30;;;9.02;;
67571;SDS011;54397;47.506;19.158;2024-03-02T13:39:47;16.20;;;8.63;;
67571;SDS011;54397;47.506;19.158;2024-03-02T13:43:09;14.80;;;9.25;;
67571;SDS011;54397;47.506;19.158;2024-03-02T13:46:33;16.98;;;10.18;;
67571;SDS011;54397;47.506;19.158;2024-03-02T13:49:55;12.88;;;9.30;;
67571;SDS011;54397;47.506;19.158;2024-03-02T13:53:16;17.90;;;10.77;;
67571;SDS011;54397;47.506;19.158;2024-03-02T13:56:39;16.45;;;9.23;;
67571;SDS011;54397;47.506;19.158;2024-03-02T14:00:03;13.73;;;9.93;;
67571;SDS011;54397;47.506;19.158;2024-03-02T14:03:31;15.95;;;10.52;;
67571;SDS011;54397;47.506;19.158;2024-03-02T14:06:53;16.50;;;10.88;;
67571;SDS011;54397;47.506;19.158;2024-03-02T14:10:18;16.50;;;9.38;;
67571;SDS011;54397;47.506;19.158;2024-03-02T14:13:43;14.65;;;8.98;;
67571;SDS011;54397;47.506;19.158;2024-03-02T14:17:09;15.55;;;9.75;;
67571;SDS011;54397;47.506;19.158;2024-03-02T14:20:36;15.25;;;9.20;;
67571;SDS011;54397;47.506;19.158;2024-03-02T14:24:01;14.00;;;9.40;;
67571;SDS011;54397;47.506;19.158;2024-03-02T14:27:25;14.45;;;8.45;;
67571;SDS011;54397;47.506;19.158;2024-03-02T14:31:07;11.30;;;7.90;;
67571;SDS011;54397;47.506;19.158;2024-03-02T14:34:31;13.73;;;9.13;;
67571;SDS011;54397;47.506;19.158;2024-03-02T14:37:52;14.57;;;9.35;;
67571;SDS011;54397;47.506;19.158;2024-03-02T14:41:14;14.40;;;10.25;;
67571;SDS011;54397;47.506;19.158;2024-03-02T14:44:36;14.25;;;10.80;;
67571;SDS011;54397;47.506;19.158;2024-03-02T14:47:57;16.48;;;10.50;;
67571;SDS011;54397;47.506;19.158;2024-03-02T14:51:25;23.02;;;12.15;;
67571;SDS011;54397;47.506;19.158;2024-03-02T14:54:46;21.65;;;13.15;;
67571;SDS011;54397;47.506;19.158;2024-03-02T14:58:08;20.20;;;13.95;;
67571;SDS011;54397;47.506;19.158;2024-03-02T15:01:32;22.70;;;13.45;;
67571;SDS011;54397;47.506;19.158;2024-03-02T15:04:59;23.92;;;14.23;;
67571;SDS011;54397;47.506;19.158;2024-03-02T15:08:24;23.25;;;15.60;;
67571;SDS011;54397;47.506;19.158;2024-03-02T15:11:46;25.23;;;15.93;;
67571;SDS011;54397;47.506;19.158;2024-03-02T15:15:07;25.30;;;14.85;;
67571;SDS011;54397;47.506;19.158;2024-03-02T15:18:32;22.88;;;15.10;;
67571;SDS011;54397;47.506;19.158;2024-03-02T15:21:56;25.98;;;15.60;;
67571;SDS011;54397;47.506;19.158;2024-03-02T15:25:17;24.23;;;15.20;;
67571;SDS011;54397;47.506;19.158;2024-03-02T15:28:42;23.48;;;15.50;;
67571;SDS011;54397;47.506;19.158;2024-03-02T15:32:07;32.25;;;17.13;;
67571;SDS011;54397;47.506;19.158;2024-03-02T15:35:31;22.42;;;15.68;;
67571;SDS011;54397;47.506;19.158;2024-03-02T15:38:55;27.95;;;16.98;;
67571;SDS011;54397;47.506;19.158;2024-03-02T15:42:18;26.48;;;17.25;;
67571;SDS011;54397;47.506;19.158;2024-03-02T15:45:40;26.63;;;16.65;;
67571;SDS011;54397;47.506;19.158;2024-03-02T15:49:04;26.23;;;16.35;;
67571;SDS011;54397;47.506;19.158;2024-03-02T15:52:30;26.95;;;17.10;;
67571;SDS011;54397;47.506;19.158;2024-03-02T15:55:52;44.40;;;28.45;;
67571;SDS011;54397;47.506;19.158;2024-03-02T15:59:16;49.15;;;32.30;;
67571;SDS011;54397;47.506;19.158;2024-03-02T16:02:38;42.97;;;28.33;;
67571;SDS011;54397;47.506;19.158;2024-03-02T16:05:59;30.27;;;19.27;;
67571;SDS011;54397;47.506;19.158;2024-03-02T16:09:21;28.58;;;18.85;;
67571;SDS011;54397;47.506;19.158;2024-03-02T16:12:43;27.23;;;16.48;;
67571;SDS011;54397;47.506;19.158;2024-03-02T16:16:05;22.55;;;15.65;;
67571;SDS011;54397;47.506;19.158;2024-03-02T16:19:27;23.48;;;15.40;;
67571;SDS011;54397;47.506;19.158;2024-03-02T16:22:54;21.58;;;14.40;;
67571;SDS011;54397;47.506;19.158;2024-03-02T16:26:16;22.92;;;14.43;;
67571;SDS011;54397;47.506;19.158;2024-03-02T16:29:37;18.17;;;13.75;;
67571;SDS011;54397;47.506;19.158;2024-03-02T16:32:59;20.65;;;13.55;;
67571;SDS011;54397;47.506;19.158;2024-03-02T16:36:26;22.45;;;12.73;;
67571;SDS011;54397;47.506;19.158;2024-03-02T16:39:49;20.70;;;12.70;;
67571;SDS011;54397;47.506;19.158;2024-03-02T16:43:11;17.50;;;12.30;;
67571;SDS011;54397;47.506;19.158;2024-03-02T16:46:33;18.20;;;12.35;;
67571;SDS011;54397;47.506;19.158;2024-03-02T16:49:57;18.88;;;12.50;;
67571;SDS011;54397;47.506;19.158;2024-03-02T16:53:20;20.33;;;12.30;;
67571;SDS011;54397;47.506;19.158;2024-03-02T16:56:42;17.75;;;11.93;;
67571;SDS011;54397;47.506;19.158;2024-03-02T17:00:08;36.22;;;24.60;;
67571;SDS011;54397;47.506;19.158;2024-03-02T17:03:30;29.17;;;19.52;;
67571;SDS011;54397;47.506;19.158;2024-03-02T17:06:54;18.33;;;12.50;;
67571;SDS011;54397;47.506;19.158;2024-03-02T17:10:19;17.38;;;11.50;;
67571;SDS011;54397;47.506;19.158;2024-03-02T17:13:41;16.50;;;12.38;;
67571;SDS011;54397;47.506;19.158;2024-03-02T17:17:05;18.75;;;12.75;;
67571;SDS011;54397;47.506;19.158;2024-03-02T17:20:26;18.70;;;13.60;;
67571;SDS011;54397;47.506;19.158;2024-03-02T17:23:49;19.42;;;14.20;;
67571;SDS011;54397;47.506;19.158;2024-03-02T17:27:11;17.98;;;13.27;;
67571;SDS011;54397;47.506;19.158;2024-03-02T17:30:35;19.15;;;13.20;;
67571;SDS011;54397;47.506;19.158;2024-03-02T17:33:57;15.68;;;11.77;;
67571;SDS011;54397;47.506;19.158;2024-03-02T17:37:21;17.08;;;12.18;;
67571;SDS011;54397;47.506;19.158;2024-03-02T17:40:45;21.65;;;13.93;;
67571;SDS011;54397;47.506;19.158;2024-03-02T17:44:09;28.63;;;17.58;;
67571;SDS011;54397;47.506;19.158;2024-03-02T17:47:31;34.15;;;21.83;;
67571;SDS011;54397;47.506;19.158;2024-03-02T17:50:53;19.80;;;12.38;;
67571;SDS011;54397;47.506;19.158;2024-03-02T17:54:15;15.93;;;10.88;;
67571;SDS011;54397;47.506;19.158;2024-03-02T17:57:42;13.52;;;10.32;;
67571;SDS011;54397;47.506;19.158;2024-03-02T18:01:05;15.02;;;10.43;;
67571;SDS011;54397;47.506;19.158;2024-03-02T18:04:27;13.50;;;10.02;;
67571;SDS011;54397;47.506;19.158;2024-03-02T18:07:51;13.52;;;10.20;;
67571;SDS011;54397;47.506;19.158;2024-03-02T18:11:15;16.23;;;10.00;;
67571;SDS011;54397;47.506;19.158;2024-03-02T18:14:38;12.13;;;9.02;;
67571;SDS011;54397;47.506;19.158;2024-03-02T18:18:00;12.80;;;9.57;;
67571;SDS011;54397;47.506;19.158;2024-03-02T18:21:26;14.27;;;10.00;;
67571;SDS011;54397;47.506;19.158;2024-03-02T18:24:51;15.25;;;10.20;;
67571;SDS011;54397;47.506;19.158;2024-03-02T18:28:15;15.95;;;9.48;;
67571;SDS011;54397;47.506;19.158;2024-03-02T18:31:39;14.23;;;9.27;;
67571;SDS011;54397;47.506;19.158;2024-03-02T18:35:01;36.20;;;19.83;;
67571;SDS011;54397;47.506;19.158;2024-03-02T18:38:26;37.97;;;27.75;;
67571;SDS011;54397;47.506;19.158;2024-03-02T18:41:47;12.07;;;9.35;;
67571;SDS011;54397;47.506;19.158;2024-03-02T18:45:14;12.55;;;9.00;;
67571;SDS011;54397;47.506;19.158;2024-03-02T18:48:38;14.07;;;8.63;;
67571;SDS011;54397;47.506;19.158;2024-03-02T18:52:00;12.00;;;9.38;;
67571;SDS011;54397;47.506;19.158;2024-03-02T18:55:22;10.23;;;8.65;;
67571;SDS011;54397;47.506;19.158;2024-03-02T18:58:46;15.02;;;8.52;;
67571;SDS011;54397;47.506;19.158;2024-03-02T19:02:10;11.93;;;8.00;;
67571;SDS011;54397;47.506;19.158;2024-03-02T19:05:34;15.35;;;10.82;;
67571;SDS011;54397;47.506;19.158;2024-03-02T19:08:55;28.42;;;21.55;;
67571;SDS011;54397;47.506;19.158;2024-03-02T19:12:19;13.18;;;8.60;;
67571;SDS011;54397;47.506;19.158;2024-03-02T19:15:40;12.35;;;8.60;;
67571;SDS011;54397;47.506;19.158;2024-03-02T19:19:02;11.35;;;8.65;;
67571;SDS011;54397;47.506;19.158;2024-03-02T19:22:26;11.02;;;8.88;;
67571;SDS011;54397;47.506;19.158;2024-03-02T19:25:49;13.15;;;8.52;;
67571;SDS011;54397;47.506;19.158;2024-03-02T19:29:11;14.63;;;8.43;;
67571;SDS011;54397;47.506;19.158;2024-03-02T19:32:33;16.38;;;11.48;;
67571;SDS011;54397;47.506;19.158;2024-03-02T19:36:01;17.40;;;10.85;;
67571;SDS011;54397;47.506;19.158;2024-03-02T19:39:25;13.85;;;8.88;;
67571;SDS011;54397;47.506;19.158;2024-03-02T19:42:49;14.80;;;9.98;;
67571;SDS011;54397;47.506;19.158;2024-03-02T19:46:11;13.25;;;9.93;;
67571;SDS011;54397;47.506;19.158;2024-03-02T19:49:36;13.23;;;9.10;;
67571;SDS011;54397;47.506;19.158;2024-03-02T19:53:01;11.77;;;8.75;;
67571;SDS011;54397;47.506;19.158;2024-03-02T19:56:24;14.35;;;8.20;;